Time;durP1;ratioP1;P1;durP2;ratioP2;P2;SDS_P1;SDS_P2;PMS_P1;PMS_P2;Temp;Humidity;BMP_temperature;BMP_pressure;BME280_temperature;BME280_humidity;BME280_pressure;Samples;Min_cycle;Max_cycle;Signal;HPM_P1;HPM_P2
2021/03/07 00:00:59;;;;;;;9.43;7.23;;;3.10;99.90;;;-141.85;100.00;63675.41;5035593;28;20689;-61
2021/03/07 00:03:28;;;;;;;9.07;7.53;;;3.00;99.90;;;-141.85;100.00;63675.41;5035539;28;20203;-61
2021/03/07 00:05:56;;;;;;;8.83;6.80;;;3.00;99.90;;;-141.85;100.00;63675.41;5035441;28;20790;-60
2021/03/07 00:08:23;;;;;;;10.07;7.97;;;2.90;99.90;;;-141.85;100.00;63675.41;5035450;28;20735;-60
2021/03/07 00:10:50;;;;;;;8.73;7.07;;;2.80;99.90;;;-141.85;100.00;63675.41;5035669;28;20272;-60
2021/03/07 00:13:18;;;;;;;6.37;5.20;;;2.80;99.90;;;-141.85;100.00;63675.41;5035204;28;20250;-61
2021/03/07 00:15:45;;;;;;;7.97;6.57;;;2.60;99.90;;;-141.85;100.00;63675.41;5035599;28;20203;-59
2021/03/07 00:18:13;;;;;;;7.80;6.03;;;2.70;99.90;;;-141.85;100.00;63675.41;5035399;28;20671;-60
2021/03/07 00:20:41;;;;;;;6.27;5.67;;;2.70;99.90;;;-141.85;100.00;63675.41;5035306;28;20206;-60
2021/03/07 00:23:08;;;;;;;7.53;6.37;;;2.60;99.90;;;-141.85;100.00;63675.41;5035577;28;20245;-60
2021/03/07 00:25:35;;;;;;;7.63;6.50;;;2.60;99.90;;;-141.85;100.00;63675.41;5035082;28;20694;-61
2021/03/07 00:28:03;;;;;;;8.13;6.37;;;2.60;99.90;;;-141.85;100.00;63675.41;5035133;28;20672;-60
2021/03/07 00:30:31;;;;;;;10.53;7.03;;;2.70;99.90;;;-141.85;100.00;63675.41;5035166;28;20635;-61
2021/03/07 00:32:58;;;;;;;8.47;6.47;;;2.50;99.90;;;-141.85;100.00;63675.41;5035020;28;20295;-59
2021/03/07 00:35:26;;;;;;;9.83;6.00;;;2.40;99.90;;;-141.85;100.00;63675.41;5034867;28;20274;-60
2021/03/07 00:37:54;;;;;;;7.33;5.57;;;2.40;99.90;;;-141.85;100.00;63675.41;5035281;28;20650;-61
2021/03/07 00:40:21;;;;;;;6.60;5.90;;;2.40;99.90;;;-141.85;100.00;63675.41;5034939;28;20286;-60
2021/03/07 00:42:50;;;;;;;6.87;5.80;;;2.50;99.90;;;-141.85;100.00;63675.41;5015508;28;20462;-60
2021/03/07 00:45:23;;;;;;;7.00;6.23;;;2.50;99.90;;;-141.85;100.00;63675.41;5015171;28;20309;-61
2021/03/07 00:47:51;;;;;;;8.47;5.77;;;2.60;99.90;;;-141.85;100.00;63675.41;5015213;28;20262;-60
2021/03/07 00:50:21;;;;;;;8.53;6.37;;;2.70;99.90;;;-141.85;100.00;63675.41;5015160;28;20228;-60
2021/03/07 00:52:55;;;;;;;6.23;5.67;;;2.70;99.90;;;-141.85;100.00;63675.41;5014696;28;20273;-61
2021/03/07 00:55:23;;;;;;;6.80;5.67;;;2.70;99.90;;;-141.85;100.00;63675.41;5015007;28;20204;-61
2021/03/07 00:57:50;;;;;;;7.00;5.77;;;2.70;99.90;;;-141.85;100.00;63675.41;5013894;28;20285;-61
2021/03/07 01:00:22;;;;;;;8.07;6.10;;;2.70;99.90;;;-141.85;100.00;63675.41;5015071;28;20285;-59
2021/03/07 01:02:51;;;;;;;8.07;5.83;;;2.80;99.90;;;-141.85;100.00;63675.41;5015029;28;20231;-60
2021/03/07 01:05:19;;;;;;;8.30;6.33;;;2.80;99.90;;;-141.85;100.00;63675.41;5014810;28;20226;-60
2021/03/07 01:07:46;;;;;;;9.60;7.13;;;2.80;99.90;;;-141.85;100.00;63675.41;5014753;28;20200;-61
2021/03/07 01:10:18;;;;;;;7.73;6.93;;;2.80;99.90;;;-141.85;100.00;63675.41;5014593;28;20614;-61
2021/03/07 01:12:50;;;;;;;7.70;6.30;;;2.80;99.90;;;-141.85;100.00;63675.41;5014251;28;20284;-61
2021/03/07 01:15:20;;;;;;;7.80;6.93;;;2.80;99.90;;;-141.85;100.00;63675.41;5014710;28;20227;-60
2021/03/07 01:17:47;;;;;;;7.57;6.30;;;2.70;99.90;;;-141.85;100.00;63675.41;5014536;28;20258;-59
2021/03/07 01:20:17;;;;;;;9.63;7.63;;;2.80;99.90;;;-141.85;100.00;63675.41;5014251;28;20674;-60
2021/03/07 01:22:53;;;;;;;8.43;6.60;;;2.90;99.90;;;-141.85;100.00;63675.41;5014543;28;20577;-60
2021/03/07 01:25:25;;;;;;;6.43;5.63;;;2.90;99.90;;;-141.85;100.00;63675.41;5013764;28;20255;-60
2021/03/07 01:27:52;;;;;;;7.60;6.00;;;2.90;99.90;;;-141.85;100.00;63675.41;5014382;28;20270;-59
2021/03/07 01:30:23;;;;;;;8.37;5.40;;;2.90;99.90;;;-141.85;100.00;63675.41;5014386;28;20290;-60
2021/03/07 01:32:51;;;;;;;6.97;5.17;;;2.90;99.90;;;-141.85;100.00;63675.41;5013967;28;20276;-60
2021/03/07 01:35:20;;;;;;;5.97;5.27;;;2.90;99.90;;;-141.85;100.00;63675.41;5013831;28;20241;-60
2021/03/07 01:37:48;;;;;;;6.87;5.47;;;3.00;99.90;;;-141.85;100.00;63675.41;5014228;28;20214;-61
2021/03/07 01:40:20;;;;;;;5.23;4.73;;;3.00;99.90;;;-141.85;100.00;63675.41;5013510;28;20283;-58
2021/03/07 01:42:49;;;;;;;7.03;5.80;;;3.00;99.90;;;-141.85;100.00;63675.41;5013900;28;20274;-59
2021/03/07 01:45:19;;;;;;;7.07;6.13;;;2.90;99.90;;;-141.85;100.00;63675.41;5014025;28;20323;-61
2021/03/07 01:47:48;;;;;;;6.30;5.70;;;3.00;99.90;;;-141.85;100.00;63675.41;5014015;28;20203;-59
2021/03/07 01:50:19;;;;;;;6.93;5.53;;;3.00;99.90;;;-141.85;100.00;63675.41;5013937;28;20278;-60
2021/03/07 01:52:47;;;;;;;7.93;5.83;;;2.90;99.90;;;-141.85;100.00;63675.41;5014020;28;20374;-59
2021/03/07 01:55:18;;;;;;;8.40;6.37;;;3.00;99.90;;;-141.85;100.00;63675.41;5013373;28;20298;-60
2021/03/07 01:57:48;;;;;;;6.43;5.70;;;2.90;99.90;;;-141.85;100.00;63675.41;5013491;28;20679;-59
2021/03/07 02:00:17;;;;;;;7.53;6.07;;;2.90;99.90;;;-141.85;100.00;63675.41;5013696;28;20349;-60
2021/03/07 02:02:44;;;;;;;8.13;6.20;;;2.90;99.90;;;-141.85;100.00;63675.41;5013425;28;20595;-60
2021/03/07 02:05:16;;;;;;;10.40;7.60;;;2.90;99.90;;;-141.85;100.00;63675.41;5013359;28;20273;-59
2021/03/07 02:07:45;;;;;;;8.67;6.27;;;2.70;99.90;;;-141.85;100.00;63675.41;5013590;28;20212;-59
2021/03/07 02:10:19;;;;;;;7.10;6.40;;;2.70;99.90;;;-141.85;100.00;63675.41;5012465;28;20238;-59
2021/03/07 02:12:52;;;;;;;9.43;6.23;;;2.80;99.90;;;-141.85;100.00;63675.41;5013398;28;20190;-60
2021/03/07 02:15:21;;;;;;;6.73;6.00;;;2.70;99.90;;;-141.85;100.00;63675.41;5013174;28;20959;-60
2021/03/07 02:17:55;;;;;;;6.37;5.60;;;2.60;99.90;;;-141.85;100.00;63675.41;5013338;28;20242;-61
2021/03/07 02:20:30;;;;;;;7.50;5.97;;;2.50;99.90;;;-141.85;100.00;63675.41;5013216;28;20199;-60
2021/03/07 02:23:07;;;;;;;7.67;6.10;;;2.50;99.90;;;-141.85;100.00;63675.41;5013520;28;20187;-59
2021/03/07 02:25:36;;;;;;;7.47;6.20;;;2.50;99.90;;;-141.85;100.00;63675.41;5012585;28;20255;-60
2021/03/07 02:28:06;;;;;;;8.73;6.43;;;2.50;99.90;;;-141.85;100.00;63675.41;5013338;28;20281;-60
2021/03/07 02:30:35;;;;;;;9.80;6.13;;;2.50;99.90;;;-141.85;100.00;63675.41;5013453;28;20202;-59
2021/03/07 02:33:13;;;;;;;9.30;6.70;;;2.40;99.90;;;-141.85;100.00;63675.41;5013328;28;20275;-60
2021/03/07 02:35:49;;;;;;;9.30;7.00;;;2.40;99.90;;;-141.85;100.00;63675.41;5012856;28;20231;-59
2021/03/07 02:38:23;;;;;;;7.73;6.43;;;2.30;99.90;;;-141.85;100.00;63675.41;5013086;28;20635;-59
2021/03/07 02:40:56;;;;;;;7.30;6.30;;;2.30;99.90;;;-141.85;100.00;63675.41;5012615;28;20218;-60
2021/03/07 02:43:26;;;;;;;9.00;6.27;;;2.30;99.90;;;-141.85;100.00;63675.41;5013185;28;20210;-60
2021/03/07 02:46:00;;;;;;;8.47;6.00;;;2.30;99.90;;;-141.85;100.00;63675.41;5012885;28;20315;-60
2021/03/07 02:48:29;;;;;;;7.90;5.90;;;2.50;99.90;;;-141.85;100.00;63675.41;5013182;28;20187;-61
2021/03/07 02:50:59;;;;;;;7.27;5.37;;;2.50;99.90;;;-141.85;100.00;63675.41;5013077;28;20302;-60
2021/03/07 02:53:31;;;;;;;6.63;5.00;;;2.60;99.90;;;-141.85;100.00;63675.41;5012991;28;20645;-61
2021/03/07 02:56:06;;;;;;;6.87;6.10;;;2.60;99.90;;;-141.85;100.00;63675.41;5012485;28;20278;-62
2021/03/07 02:58:36;;;;;;;7.93;6.07;;;2.50;99.90;;;-141.85;100.00;63675.41;5012710;28;20620;-61
2021/03/07 03:01:08;;;;;;;6.83;6.10;;;2.40;99.90;;;-141.85;100.00;63675.41;5013142;28;20253;-60
2021/03/07 03:03:40;;;;;;;8.63;6.23;;;2.40;99.90;;;-141.85;100.00;63675.41;5013085;28;20190;-61
2021/03/07 03:06:11;;;;;;;5.90;5.23;;;2.50;99.90;;;-141.85;100.00;63675.41;5013033;28;20297;-61
2021/03/07 03:08:40;;;;;;;6.63;5.63;;;2.50;99.90;;;-141.85;100.00;63675.41;5013100;28;20244;-60
2021/03/07 03:11:09;;;;;;;6.83;6.03;;;2.40;99.90;;;-141.85;100.00;63675.41;5012575;28;20222;-60
2021/03/07 03:13:38;;;;;;;6.70;5.97;;;2.30;99.90;;;-141.85;100.00;63675.41;5012856;28;20234;-60
2021/03/07 03:16:07;;;;;;;7.17;6.23;;;2.30;99.90;;;-141.85;100.00;63675.41;5012644;28;20697;-60
2021/03/07 03:18:37;;;;;;;7.33;5.70;;;2.30;99.90;;;-141.85;100.00;63675.41;5012715;28;20210;-60
2021/03/07 03:21:09;;;;;;;7.97;5.73;;;2.50;99.90;;;-141.85;100.00;63675.41;5014442;28;20294;-60
2021/03/07 03:23:37;;;;;;;7.97;6.30;;;2.60;99.90;;;-141.85;100.00;63675.41;5016835;28;20233;-60
2021/03/07 03:26:04;;;;;;;7.17;5.93;;;2.50;99.90;;;-141.85;100.00;63675.41;5018006;28;20588;-61
2021/03/07 03:28:33;;;;;;;6.53;5.93;;;2.50;99.90;;;-141.85;100.00;63675.41;5019139;28;20227;-60
2021/03/07 03:31:00;;;;;;;6.87;6.17;;;2.40;99.90;;;-141.85;100.00;63675.41;5018865;28;20242;-61
2021/03/07 03:33:27;;;;;;;7.67;5.53;;;2.30;99.90;;;-141.85;100.00;63675.41;5016397;28;20297;-60
2021/03/07 03:35:56;;;;;;;6.57;5.97;;;2.20;99.90;;;-141.85;100.00;63675.41;5016446;28;20301;-59
2021/03/07 03:38:34;;;;;;;7.50;6.00;;;2.20;99.90;;;-141.85;100.00;63675.41;5016521;28;20210;-61
2021/03/07 03:41:04;;;;;;;7.77;6.47;;;2.20;99.90;;;-141.85;100.00;63675.41;5016066;28;20261;-60
2021/03/07 03:43:46;;;;;;;7.70;6.70;;;2.20;99.90;;;-141.85;100.00;63675.41;5016023;28;20187;-60
2021/03/07 03:46:15;;;;;;;7.23;5.57;;;2.30;99.90;;;-141.85;100.00;63675.41;5016426;28;20297;-61
2021/03/07 03:48:48;;;;;;;9.23;6.63;;;2.40;99.90;;;-141.85;100.00;63675.41;5016366;28;20207;-61
2021/03/07 03:51:19;;;;;;;9.30;5.90;;;2.30;99.90;;;-141.85;100.00;63675.41;5016303;28;20211;-61
2021/03/07 03:53:49;;;;;;;6.63;5.23;;;2.30;99.90;;;-141.85;100.00;63675.41;5015548;28;20575;-61
2021/03/07 03:56:20;;;;;;;7.83;5.30;;;2.30;99.90;;;-141.85;100.00;63675.41;5016077;28;20293;-62
2021/03/07 03:58:51;;;;;;;9.10;5.70;;;2.40;99.90;;;-141.85;100.00;63675.41;5015875;28;20179;-60
2021/03/07 04:01:21;;;;;;;6.23;5.33;;;2.30;99.90;;;-141.85;100.00;63675.41;5016244;28;20285;-61
2021/03/07 04:03:52;;;;;;;6.10;5.50;;;2.30;99.90;;;-141.85;100.00;63675.41;5016053;28;20243;-61
2021/03/07 04:06:24;;;;;;;6.93;5.53;;;2.10;99.90;;;-141.85;100.00;63675.41;5015877;28;20213;-60
2021/03/07 04:08:53;;;;;;;5.73;5.20;;;2.00;99.90;;;-141.85;100.00;63675.41;5015628;28;20269;-61
2021/03/07 04:11:22;;;;;;;6.43;5.23;;;1.90;99.90;;;-141.85;100.00;63675.41;5015373;28;20238;-62
2021/03/07 04:13:51;;;;;;;6.07;5.40;;;1.80;99.90;;;-141.85;100.00;63675.41;5015670;28;20298;-61
2021/03/07 04:16:19;;;;;;;6.93;5.80;;;1.80;99.90;;;-141.85;100.00;63675.41;5015800;28;20206;-61
2021/03/07 04:18:48;;;;;;;8.30;6.20;;;1.80;99.90;;;-141.85;100.00;63675.41;5015466;28;20218;-61
2021/03/07 04:21:17;;;;;;;6.10;5.50;;;1.70;99.90;;;-141.85;100.00;63675.41;5015507;28;20734;-61
2021/03/07 04:23:45;;;;;;;7.57;6.07;;;1.60;99.90;;;-141.85;100.00;63675.41;5015383;28;20244;-61
2021/03/07 04:26:12;;;;;;;7.27;6.40;;;1.60;99.90;;;-141.85;100.00;63675.41;5015361;28;20222;-61
2021/03/07 04:28:40;;;;;;;7.70;6.90;;;1.60;99.90;;;-141.85;100.00;63675.41;5015152;28;20859;-61
2021/03/07 04:31:08;;;;;;;7.90;5.83;;;1.60;99.90;;;-141.85;100.00;63675.41;5015238;28;20253;-61
2021/03/07 04:33:37;;;;;;;6.63;5.43;;;1.50;99.90;;;-141.85;100.00;63675.41;5014723;28;20290;-61
2021/03/07 04:36:06;;;;;;;6.90;5.50;;;1.60;99.90;;;-141.85;100.00;63675.41;5015116;28;20231;-61
2021/03/07 04:38:33;;;;;;;7.87;6.70;;;1.50;99.90;;;-141.85;100.00;63675.41;5015177;28;20243;-61
2021/03/07 04:41:01;;;;;;;6.70;6.00;;;1.50;99.90;;;-141.85;100.00;63675.41;5014887;28;20294;-60
2021/03/07 04:43:48;;;;;;;9.93;6.50;;;1.60;99.90;;;-141.85;100.00;63675.41;5015161;28;20202;-60
2021/03/07 04:46:19;;;;;;;6.00;5.23;;;1.70;99.90;;;-141.85;100.00;63675.41;5015233;28;20207;-60
2021/03/07 04:48:46;;;;;;;8.40;6.70;;;1.60;99.90;;;-141.85;100.00;63675.41;5015006;28;20191;-61
2021/03/07 04:51:14;;;;;;;7.67;5.70;;;1.70;99.90;;;-141.85;100.00;63675.41;5015181;28;20195;-61
2021/03/07 04:53:41;;;;;;;6.73;6.03;;;1.60;99.90;;;-141.85;100.00;63675.41;5014740;28;20311;-60
2021/03/07 04:56:09;;;;;;;6.67;5.77;;;1.50;99.90;;;-141.85;100.00;63675.41;5014860;28;20613;-61
2021/03/07 04:58:37;;;;;;;7.43;6.73;;;1.40;99.90;;;-141.85;100.00;63675.41;5014927;28;20206;-61
2021/03/07 05:01:05;;;;;;;7.03;6.03;;;1.50;99.90;;;-141.85;100.00;63675.41;5014845;28;20253;-61
2021/03/07 05:03:34;;;;;;;8.00;5.73;;;1.50;99.90;;;-141.85;100.00;63675.41;5014860;28;20199;-62
2021/03/07 05:06:01;;;;;;;6.70;5.77;;;1.50;99.90;;;-141.85;100.00;63675.41;5014491;28;20988;-61
2021/03/07 05:08:30;;;;;;;8.97;5.80;;;1.40;99.90;;;-141.85;100.00;63675.41;5014227;28;20206;-60
2021/03/07 05:10:58;;;;;;;6.90;6.20;;;1.50;99.90;;;-141.85;100.00;63675.41;5014330;28;20238;-61
2021/03/07 05:13:25;;;;;;;6.97;6.23;;;1.50;99.90;;;-141.85;100.00;63675.41;5014642;28;20203;-61
2021/03/07 05:15:52;;;;;;;7.83;6.57;;;1.50;99.90;;;-141.85;100.00;63675.41;5014763;28;20195;-61
2021/03/07 05:18:21;;;;;;;8.27;6.17;;;1.50;99.90;;;-141.85;100.00;63675.41;5014361;28;20210;-64
2021/03/07 05:20:49;;;;;;;7.17;6.40;;;1.40;99.90;;;-141.85;100.00;63675.41;5014487;28;20199;-60
2021/03/07 05:23:16;;;;;;;6.57;5.93;;;1.30;99.90;;;-141.85;100.00;63675.41;5014040;28;20283;-60
2021/03/07 05:25:43;;;;;;;7.77;5.87;;;1.30;99.90;;;-141.85;100.00;63675.41;5014134;28;20257;-61
2021/03/07 05:28:10;;;;;;;7.53;6.13;;;1.30;99.90;;;-141.85;100.00;63675.41;5014038;28;20882;-61
2021/03/07 05:30:38;;;;;;;7.60;6.00;;;1.40;99.90;;;-141.85;100.00;63675.41;5014143;28;20229;-60
2021/03/07 05:33:05;;;;;;;6.53;5.70;;;1.40;99.90;;;-141.85;100.00;63675.41;5014272;28;20245;-60
2021/03/07 05:35:33;;;;;;;6.60;6.00;;;1.30;99.90;;;-141.85;100.00;63675.41;5013954;28;20230;-60
2021/03/07 05:38:01;;;;;;;6.57;5.80;;;1.50;99.90;;;-141.85;100.00;63675.41;5013660;28;20628;-61
2021/03/07 05:40:31;;;;;;;7.57;5.83;;;1.40;99.90;;;-141.85;100.00;63675.41;5013957;28;20658;-61
2021/03/07 05:42:59;;;;;;;7.70;6.37;;;1.40;99.90;;;-141.85;100.00;63675.41;5013913;28;20282;-61
2021/03/07 05:45:27;;;;;;;8.90;6.60;;;1.40;99.90;;;-141.85;100.00;63675.41;5014068;28;20199;-60
2021/03/07 05:47:55;;;;;;;6.60;6.00;;;1.40;99.90;;;-141.85;100.00;63675.41;5014179;28;20285;-60
2021/03/07 05:50:23;;;;;;;7.13;6.03;;;1.40;99.90;;;-141.85;100.00;63675.41;5014116;28;20210;-61
2021/03/07 05:52:54;;;;;;;7.50;6.73;;;1.40;99.90;;;-141.85;100.00;63675.41;5013691;28;20306;-59
2021/03/07 05:55:23;;;;;;;7.47;6.27;;;1.50;99.90;;;-141.85;100.00;63675.41;5013502;28;20286;-61
2021/03/07 05:57:51;;;;;;;7.87;6.73;;;1.40;99.90;;;-141.85;100.00;63675.41;5013763;28;20231;-60
2021/03/07 06:00:20;;;;;;;9.27;6.70;;;1.40;99.90;;;-141.85;100.00;63675.41;5013901;28;20230;-61
2021/03/07 06:02:47;;;;;;;8.03;7.23;;;1.40;99.90;;;-141.85;100.00;63675.41;5013776;28;20252;-60
2021/03/07 06:05:16;;;;;;;8.23;6.97;;;1.40;99.90;;;-141.85;100.00;63675.41;5013621;28;20693;-61
2021/03/07 06:07:46;;;;;;;8.33;6.30;;;1.50;99.90;;;-141.85;100.00;63675.41;5013359;28;20229;-61
2021/03/07 06:10:18;;;;;;;9.97;6.90;;;1.60;99.90;;;-141.85;100.00;63675.41;5013168;28;20736;-60
2021/03/07 06:12:59;;;;;;;7.43;6.67;;;1.60;99.90;;;-141.85;100.00;63675.41;5013440;28;20298;-60
2021/03/07 06:15:48;;;;;;;9.77;6.97;;;1.60;99.90;;;-141.85;100.00;63675.41;5013437;28;20203;-61
2021/03/07 06:18:19;;;;;;;11.80;6.97;;;1.60;99.90;;;-141.85;100.00;63675.41;5013285;28;20207;-61
2021/03/07 06:20:50;;;;;;;10.00;7.57;;;1.60;99.90;;;-141.85;100.00;63675.41;5013259;28;20216;-61
2021/03/07 06:23:17;;;;;;;9.23;7.37;;;1.70;99.90;;;-141.85;100.00;63675.41;5012961;28;20233;-61
2021/03/07 06:25:47;;;;;;;9.57;7.83;;;1.80;99.90;;;-141.85;100.00;63675.41;5013215;28;20242;-61
2021/03/07 06:28:25;;;;;;;8.90;7.43;;;1.70;99.90;;;-141.85;100.00;63675.41;5013219;28;20214;-61
2021/03/07 06:30:53;;;;;;;9.93;7.93;;;1.60;99.90;;;-141.85;100.00;63675.41;5013357;28;20273;-61
2021/03/07 06:33:38;;;;;;;10.80;8.07;;;1.70;99.90;;;-141.85;100.00;63675.41;5013019;28;20677;-60
2021/03/07 06:36:20;;;;;;;9.03;7.77;;;1.80;99.90;;;-141.85;100.00;63675.41;5013067;28;20276;-61
2021/03/07 06:38:50;;;;;;;10.97;8.03;;;1.80;99.90;;;-141.85;100.00;63675.41;5012754;28;20603;-61
2021/03/07 06:41:22;;;;;;;8.60;7.40;;;1.90;99.90;;;-141.85;100.00;63675.41;5012726;28;20297;-61
2021/03/07 06:43:51;;;;;;;9.97;8.10;;;2.00;99.90;;;-141.85;100.00;63675.41;5012719;28;20278;-61
2021/03/07 06:46:30;;;;;;;12.03;9.00;;;2.10;99.90;;;-141.85;100.00;63675.41;5013108;28;20287;-61
2021/03/07 06:48:58;;;;;;;9.23;8.03;;;2.10;99.90;;;-141.85;100.00;63675.41;5013070;28;20202;-61
2021/03/07 06:51:29;;;;;;;10.47;8.00;;;2.10;99.90;;;-141.85;100.00;63675.41;5012747;28;20234;-60
2021/03/07 06:53:58;;;;;;;10.67;6.90;;;2.20;99.90;;;-141.85;100.00;63675.41;5013061;28;20202;-61
2021/03/07 06:56:44;;;;;;;9.70;7.10;;;2.20;99.90;;;-141.85;100.00;63675.41;5012623;28;20208;-61
2021/03/07 06:59:16;;;;;;;9.13;6.97;;;2.20;99.90;;;-141.85;100.00;63675.41;5012975;28;20183;-61
2021/03/07 07:01:45;;;;;;;8.50;7.60;;;2.30;99.90;;;-141.85;100.00;63675.41;5013051;28;20219;-61
2021/03/07 07:04:15;;;;;;;10.73;6.70;;;2.30;99.90;;;-141.85;100.00;63675.41;5012977;28;20206;-61
2021/03/07 07:07:00;;;;;;;8.50;7.27;;;2.30;99.90;;;-141.85;100.00;63675.41;5012711;28;20262;-61
2021/03/07 07:09:29;;;;;;;8.10;6.90;;;2.40;99.90;;;-141.85;100.00;63675.41;5013073;28;20241;-60
2021/03/07 07:11:56;;;;;;;7.97;7.17;;;2.50;99.90;;;-141.85;100.00;63675.41;5012860;28;20285;-60
2021/03/07 07:14:38;;;;;;;8.97;7.67;;;2.50;99.90;;;-141.85;100.00;63675.41;5012832;28;20200;-61
2021/03/07 07:17:08;;;;;;;16.93;10.70;;;2.60;99.90;;;-141.85;100.00;63675.41;5012824;28;20277;-61
2021/03/07 07:19:36;;;;;;;9.53;7.53;;;2.60;99.90;;;-141.85;100.00;63675.41;5012902;28;20204;-61
2021/03/07 07:22:05;;;;;;;9.00;7.50;;;2.70;99.90;;;-141.85;100.00;63675.41;5012055;28;20725;-61
2021/03/07 07:24:34;;;;;;;10.20;7.57;;;2.70;99.90;;;-141.85;100.00;63675.41;5012791;28;20230;-61
2021/03/07 07:27:02;;;;;;;8.83;8.00;;;2.70;99.90;;;-141.85;100.00;63675.41;5012477;28;20230;-60
2021/03/07 07:29:29;;;;;;;9.23;7.00;;;2.80;99.90;;;-141.85;100.00;63675.41;5012640;28;20325;-60
2021/03/07 07:32:06;;;;;;;8.83;7.23;;;2.80;99.90;;;-141.85;100.00;63675.41;5012402;28;20301;-61
2021/03/07 07:34:45;;;;;;;8.97;6.40;;;2.90;99.90;;;-141.85;100.00;63675.41;5012608;28;20273;-61
2021/03/07 07:37:23;;;;;;;10.13;8.87;;;3.10;99.90;;;-141.85;100.00;63675.41;5012339;28;20230;-61
2021/03/07 07:39:52;;;;;;;7.93;6.40;;;3.00;99.90;;;-141.85;100.00;63675.41;5012775;28;20215;-60
2021/03/07 07:42:24;;;;;;;7.27;6.40;;;3.00;99.90;;;-141.85;100.00;63675.41;5005951;28;20238;-61
2021/03/07 07:44:53;;;;;;;7.70;6.83;;;3.00;99.90;;;-141.85;100.00;63675.41;4999476;28;20663;-60
2021/03/07 07:47:22;;;;;;;9.17;7.43;;;3.20;99.90;;;-141.85;100.00;63675.41;4994679;28;20229;-61
2021/03/07 07:49:51;;;;;;;7.30;6.60;;;3.20;99.90;;;-141.85;100.00;63675.41;4992654;28;20295;-60
2021/03/07 07:52:39;;;;;;;7.93;7.07;;;3.30;99.90;;;-141.85;100.00;63675.41;4992699;28;20200;-62
2021/03/07 07:55:11;;;;;;;9.13;6.60;;;3.40;99.90;;;-141.85;100.00;63675.41;4992651;28;20271;-61
2021/03/07 07:57:48;;;;;;;10.60;6.97;;;3.40;99.90;;;-141.85;100.00;63675.41;4992761;28;20190;-60
2021/03/07 08:00:20;;;;;;;9.30;6.90;;;3.50;99.90;;;-141.85;100.00;63675.41;4992905;28;20231;-60
2021/03/07 08:02:54;;;;;;;7.03;6.30;;;3.50;99.90;;;-141.85;100.00;63675.41;4992931;28;20229;-61
2021/03/07 08:05:45;;;;;;;7.43;6.60;;;3.40;99.90;;;-141.85;100.00;63675.41;4992922;28;20219;-60
2021/03/07 08:08:16;;;;;;;8.30;6.53;;;3.40;99.90;;;-141.85;100.00;63675.41;5001016;28;20674;-61
2021/03/07 08:10:49;;;;;;;7.97;6.63;;;3.40;99.90;;;-141.85;100.00;63675.41;5008011;28;20216;-62
2021/03/07 08:13:45;;;;;;;8.00;6.93;;;3.50;99.90;;;-141.85;100.00;63675.41;4995925;28;20274;-61
2021/03/07 08:16:13;;;;;;;7.20;6.50;;;3.60;99.90;;;-141.85;100.00;63675.41;4996057;28;20631;-62
2021/03/07 08:18:51;;;;;;;9.47;6.57;;;3.60;99.90;;;-141.85;100.00;63675.41;4996167;28;20263;-61
2021/03/07 08:21:20;;;;;;;8.33;6.43;;;3.70;99.90;;;-141.85;100.00;63675.41;5003463;28;20235;-63
2021/03/07 08:24:03;;;;;;;11.90;7.27;;;3.70;99.90;;;-141.85;100.00;63675.41;5013704;28;20278;-62
2021/03/07 08:26:58;;;;;;;7.23;6.50;;;3.80;99.90;;;-141.85;100.00;63675.41;5014440;28;20735;-61
2021/03/07 08:29:47;;;;;;;6.93;6.10;;;3.90;99.90;;;-141.85;100.00;63675.41;5015231;28;20224;-61
2021/03/07 08:32:39;;;;;;;7.33;6.47;;;3.90;99.90;;;-141.85;100.00;63675.41;5015545;28;20193;-61
2021/03/07 08:35:19;;;;;;;9.93;7.10;;;4.00;99.90;;;-141.85;100.00;63675.41;5015172;28;20321;-61
2021/03/07 08:38:14;;;;;;;8.30;6.70;;;4.10;99.90;;;-141.85;100.00;63675.41;5015163;28;20263;-61
2021/03/07 08:40:43;;;;;;;8.63;7.77;;;4.10;99.90;;;-141.85;100.00;63675.41;5009253;28;20250;-60
2021/03/07 08:43:53;;;;;;;11.20;7.30;;;4.20;99.90;;;-141.85;100.00;63675.41;5009363;28;20285;-60
2021/03/07 08:46:25;;;;;;;8.43;6.90;;;4.30;99.90;;;-141.85;100.00;63675.41;4998863;28;20400;-61
2021/03/07 08:48:56;;;;;;;8.43;7.47;;;4.30;99.90;;;-141.85;100.00;63675.41;5009620;28;20208;-60
2021/03/07 08:51:36;;;;;;;7.70;6.80;;;4.40;99.90;;;-141.85;100.00;63675.41;5006033;28;20290;-62
2021/03/07 08:54:07;;;;;;;9.13;7.40;;;4.40;99.90;;;-141.85;100.00;63675.41;5000373;28;20219;-61
2021/03/07 08:56:37;;;;;;;8.33;7.37;;;4.40;99.90;;;-141.85;100.00;63675.41;5003635;28;20202;-61
2021/03/07 08:59:05;;;;;;;8.87;7.63;;;4.40;99.90;;;-141.85;100.00;63675.41;5015093;28;20206;-61
2021/03/07 09:01:32;;;;;;;7.87;7.07;;;4.30;99.90;;;-141.85;100.00;63675.41;5014841;28;20267;-60
2021/03/07 09:04:02;;;;;;;9.83;7.80;;;4.30;99.90;;;-141.85;100.00;63675.41;5007544;28;20580;-61
2021/03/07 09:06:32;;;;;;;9.13;7.80;;;4.40;99.90;;;-141.85;100.00;63675.41;4994861;28;20315;-61
2021/03/07 09:09:12;;;;;;;9.57;7.50;;;4.40;99.90;;;-141.85;100.00;63675.41;4997631;28;20233;-61
2021/03/07 09:11:49;;;;;;;9.47;7.60;;;4.50;99.90;;;-141.85;100.00;63675.41;5003711;28;20227;-61
2021/03/07 09:14:19;;;;;;;7.80;7.00;;;4.50;99.90;;;-141.85;100.00;63675.41;4995096;28;20212;-61
2021/03/07 09:16:48;;;;;;;8.30;7.50;;;4.70;99.90;;;-141.85;100.00;63675.41;4996787;28;20300;-61
2021/03/07 09:19:26;;;;;;;9.00;7.23;;;4.70;99.90;;;-141.85;100.00;63675.41;5003364;28;20209;-61
2021/03/07 09:22:10;;;;;;;9.20;7.50;;;4.80;99.90;;;-141.85;100.00;63675.41;4994580;28;20226;-60
2021/03/07 09:24:38;;;;;;;7.93;7.17;;;4.80;99.90;;;-141.85;100.00;63675.41;5006143;28;20690;-61
2021/03/07 09:27:11;;;;;;;11.13;8.17;;;4.90;99.90;;;-141.85;100.00;63675.41;5033878;28;20313;-61
2021/03/07 09:29:57;;;;;;;13.90;8.93;;;5.00;99.90;;;-141.85;100.00;63675.41;5033554;28;20263;-60
2021/03/07 09:32:27;;;;;;;9.80;8.80;;;5.10;99.90;;;-141.85;100.00;63675.41;5033560;28;20273;-60
2021/03/07 09:34:56;;;;;;;9.27;7.80;;;5.40;99.90;;;-141.85;100.00;63675.41;5033601;28;20231;-61
2021/03/07 09:37:26;;;;;;;8.67;7.03;;;5.40;99.90;;;-141.85;100.00;63675.41;5033443;28;20242;-61
2021/03/07 09:39:55;;;;;;;7.47;6.77;;;5.30;99.90;;;-141.85;100.00;63675.41;5013098;28;20232;-61
2021/03/07 09:42:22;;;;;;;9.83;7.27;;;5.40;99.90;;;-141.85;100.00;63675.41;4996808;28;20209;-62
2021/03/07 09:44:50;;;;;;;10.03;8.67;;;5.40;99.90;;;-141.85;100.00;63675.41;4994463;28;20295;-60
2021/03/07 09:47:24;;;;;;;10.93;9.03;;;5.50;99.90;;;-141.85;100.00;63675.41;4994078;28;20225;-61
2021/03/07 09:49:55;;;;;;;12.20;8.80;;;5.60;99.90;;;-141.85;100.00;63675.41;4994372;28;20233;-61
2021/03/07 09:52:22;;;;;;;8.77;7.30;;;5.70;99.90;;;-141.85;100.00;63675.41;4994107;28;20217;-61
2021/03/07 09:54:56;;;;;;;9.20;7.17;;;5.80;99.90;;;-141.85;100.00;63675.41;5003170;28;20242;-61
2021/03/07 09:57:41;;;;;;;10.83;7.63;;;5.80;99.90;;;-141.85;100.00;63675.41;5021155;28;20198;-61
2021/03/07 10:00:10;;;;;;;10.70;8.20;;;5.90;99.90;;;-141.85;100.00;63675.41;5013418;28;20210;-61
2021/03/07 10:02:37;;;;;;;9.30;7.50;;;5.80;99.90;;;-141.85;100.00;63675.41;4993668;28;20662;-61
2021/03/07 10:05:14;;;;;;;7.57;6.70;;;5.90;99.90;;;-141.85;100.00;63675.41;5009267;28;20284;-61
2021/03/07 10:07:41;;;;;;;9.03;6.90;;;5.90;99.90;;;-141.85;100.00;63675.41;4993713;28;20764;-60
2021/03/07 10:10:16;;;;;;;7.83;7.00;;;5.80;99.90;;;-141.85;100.00;63675.41;4993425;28;20241;-61
2021/03/07 10:12:47;;;;;;;8.60;7.63;;;5.60;99.90;;;-141.85;100.00;63675.41;4993780;28;20217;-61
2021/03/07 10:15:26;;;;;;;9.20;7.37;;;5.50;99.90;;;-141.85;100.00;63675.41;4993977;28;20280;-61
2021/03/07 10:17:57;;;;;;;9.00;8.10;;;5.60;99.90;;;-141.85;100.00;63675.41;4993867;28;20190;-62
2021/03/07 10:20:33;;;;;;;10.03;6.93;;;5.60;99.90;;;-141.85;100.00;63675.41;4993204;28;20233;-61
2021/03/07 10:23:01;;;;;;;8.77;7.33;;;5.70;99.90;;;-141.85;100.00;63675.41;4993672;28;20277;-61